LBS weather

Labasa Airport
Northern, Fiji

Public forecast

Using degrees Celsius for public forecast. Weather courtesy of forecast.io.

METAR (pilot weather report)

Report is more than 6 hours old.

Retrieved 2019/07/13 03:00 UTC (11 days ago):

NFNL 130300Z 09018KT 40KM SCT040 BKN060 29/24 Q1012

TAF (pilot weather forecast)

Forecast is more than 12 hours old.

Closest forecast is Nausori International Airport, 104.7 nm (193.9 km) SSW. Retrieved 2019/07/23 00:00 UTC (1 day ago):

TAF NFNA 232302Z 2400/2424 16008KT 9999 SCT023 BKN050